SBOSBO ISB / OPIS
Speedbird OnlineSpeedbird Online ISB / OPIS

New Islamabad International Airport
11:26 15.4°C

Location Islamabad, Pakistan
Latitude: 33.560713
Longitude: 72.851613
Web Airport Website | Wikipedia
Altitude 502 Meter / 1646 Feet
Distance 6,012 KM / 3,736 Miles
from London.
Time Zone UTC +5 hours (Asia/Karachi)
Codes IATA: ISB
ICAO: OPIS
Currency £1 equals PKR 310.30
Runways
RunwayLength (m)Surface
10L3658Asphalt
10R3658Asphalt
28L3658Asphalt
28R3658Asphalt
Radio
TypeDescriptionFrequency
APPIslamabad Approach121.65
APPIslamabad Approach124.65
DEPIslamabad Departure118.55
DEPIslamabad Departure119.65
GMC123.05
GMC125.15
GroundIslamabad Ground122.95
GroundIslamabad ZGround130.6
TowerIslamabad Tower122.15
TowerIslamabad Tower123.255
Live ATC
METAR OPIS 290600Z 13010KT 3000 HZ SCT040 BKN100 15/04 Q1015 TEMPO 2000
TAF TAF OPIS 290340Z 2906/3012 13006KT 5000 HZ SCT040 BKN100 TEMPO 2912/2918 13010G25KT 3000 TSRA FEW040CB SCT040 OVC100 BECMG 2918/2922 09008KT 4000 RA BR SCT040 OVC100
Weather As Of 29 Jan 2023 11:26
Description Overcast clouds
Wind 2 km/h from East (71°)
Cloud Cover 100%
Precipitation Rain: none, Snow: none
Sunrise 07:07
Sunset 17:35
Lounges Airport Airline Lounge, Departure
Airline Lounge , International Terminal
Rotations During the last 90 days there were
38 flights from LHR
39 flights to LHR



Support Speedbird Online

© 2017-2023 Speedbird Online